sensor_id;sensor_type;location;lat;lon;timestamp;P1;durP1;ratioP1;P2;durP2;ratioP2
20621;SDS011;10470;42.670;23.354;2023-02-15T00:00:26;48.47;;;25.53;;
20621;SDS011;10470;42.670;23.354;2023-02-15T00:03:11;52.27;;;26.47;;
20621;SDS011;10470;42.670;23.354;2023-02-15T00:05:57;52.70;;;26.67;;
20621;SDS011;10470;42.670;23.354;2023-02-15T00:08:44;50.10;;;26.47;;
20621;SDS011;10470;42.670;23.354;2023-02-15T00:11:29;53.33;;;26.33;;
20621;SDS011;10470;42.670;23.354;2023-02-15T00:14:24;48.20;;;24.83;;
20621;SDS011;10470;42.670;23.354;2023-02-15T00:17:10;52.87;;;26.60;;
20621;SDS011;10470;42.670;23.354;2023-02-15T00:19:55;48.27;;;24.07;;
20621;SDS011;10470;42.670;23.354;2023-02-15T00:22:41;50.30;;;26.27;;
20621;SDS011;10470;42.670;23.354;2023-02-15T00:25:26;53.47;;;27.23;;
20621;SDS011;10470;42.670;23.354;2023-02-15T00:28:11;49.90;;;25.27;;
20621;SDS011;10470;42.670;23.354;2023-02-15T00:31:10;50.07;;;26.50;;
20621;SDS011;10470;42.670;23.354;2023-02-15T00:34:03;45.40;;;24.30;;
20621;SDS011;10470;42.670;23.354;2023-02-15T00:36:55;50.37;;;25.70;;
20621;SDS011;10470;42.670;23.354;2023-02-15T00:39:41;41.47;;;19.23;;
20621;SDS011;10470;42.670;23.354;2023-02-15T00:42:26;46.17;;;24.37;;
20621;SDS011;10470;42.670;23.354;2023-02-15T00:45:12;47.67;;;25.73;;
20621;SDS011;10470;42.670;23.354;2023-02-15T00:47:57;47.97;;;25.87;;
20621;SDS011;10470;42.670;23.354;2023-02-15T00:50:46;48.73;;;24.83;;
20621;SDS011;10470;42.670;23.354;2023-02-15T00:53:34;48.70;;;25.20;;
20621;SDS011;10470;42.670;23.354;2023-02-15T00:56:19;48.63;;;25.07;;
20621;SDS011;10470;42.670;23.354;2023-02-15T00:59:05;48.40;;;25.47;;
20621;SDS011;10470;42.670;23.354;2023-02-15T01:01:50;48.77;;;24.83;;
20621;SDS011;10470;42.670;23.354;2023-02-15T01:04:36;49.60;;;25.80;;
20621;SDS011;10470;42.670;23.354;2023-02-15T01:07:21;50.53;;;26.10;;
20621;SDS011;10470;42.670;23.354;2023-02-15T01:10:07;49.47;;;25.53;;
20621;SDS011;10470;42.670;23.354;2023-02-15T01:12:53;46.07;;;22.40;;
20621;SDS011;10470;42.670;23.354;2023-02-15T01:15:39;44.00;;;23.73;;
20621;SDS011;10470;42.670;23.354;2023-02-15T01:18:25;35.23;;;17.67;;
20621;SDS011;10470;42.670;23.354;2023-02-15T01:21:16;48.40;;;24.90;;
20621;SDS011;10470;42.670;23.354;2023-02-15T01:24:03;43.30;;;21.70;;
20621;SDS011;10470;42.670;23.354;2023-02-15T01:26:49;44.20;;;24.80;;
20621;SDS011;10470;42.670;23.354;2023-02-15T01:29:34;45.10;;;24.83;;
20621;SDS011;10470;42.670;23.354;2023-02-15T01:32:19;47.60;;;25.00;;
20621;SDS011;10470;42.670;23.354;2023-02-15T01:35:05;40.07;;;19.17;;
20621;SDS011;10470;42.670;23.354;2023-02-15T01:37:51;26.47;;;12.53;;
20621;SDS011;10470;42.670;23.354;2023-02-15T01:40:36;51.87;;;25.20;;
20621;SDS011;10470;42.670;23.354;2023-02-15T01:43:27;49.40;;;25.03;;
20621;SDS011;10470;42.670;23.354;2023-02-15T01:46:35;45.20;;;24.33;;
20621;SDS011;10470;42.670;23.354;2023-02-15T01:49:25;44.47;;;21.77;;
20621;SDS011;10470;42.670;23.354;2023-02-15T01:52:13;40.03;;;21.03;;
20621;SDS011;10470;42.670;23.354;2023-02-15T01:55:01;39.60;;;20.30;;
20621;SDS011;10470;42.670;23.354;2023-02-15T01:57:47;43.23;;;24.30;;
20621;SDS011;10470;42.670;23.354;2023-02-15T02:00:33;43.60;;;23.90;;
20621;SDS011;10470;42.670;23.354;2023-02-15T02:03:26;47.40;;;24.80;;
20621;SDS011;10470;42.670;23.354;2023-02-15T02:06:21;44.93;;;23.53;;
20621;SDS011;10470;42.670;23.354;2023-02-15T02:09:08;45.77;;;23.93;;
20621;SDS011;10470;42.670;23.354;2023-02-15T02:11:55;46.27;;;24.27;;
20621;SDS011;10470;42.670;23.354;2023-02-15T02:14:40;45.43;;;23.40;;
20621;SDS011;10470;42.670;23.354;2023-02-15T02:39:12;43.83;;;23.10;;
20621;SDS011;10470;42.670;23.354;2023-02-15T02:45:29;46.33;;;24.37;;
20621;SDS011;10470;42.670;23.354;2023-02-15T02:48:21;42.70;;;22.03;;
20621;SDS011;10470;42.670;23.354;2023-02-15T02:51:10;42.30;;;22.90;;
20621;SDS011;10470;42.670;23.354;2023-02-15T02:53:56;43.73;;;24.37;;
20621;SDS011;10470;42.670;23.354;2023-02-15T02:56:46;44.00;;;23.37;;
20621;SDS011;10470;42.670;23.354;2023-02-15T02:59:36;44.23;;;23.40;;
20621;SDS011;10470;42.670;23.354;2023-02-15T03:02:27;42.70;;;22.37;;
20621;SDS011;10470;42.670;23.354;2023-02-15T03:05:18;45.10;;;23.30;;
20621;SDS011;10470;42.670;23.354;2023-02-15T03:08:10;41.60;;;22.73;;
20621;SDS011;10470;42.670;23.354;2023-02-15T03:11:06;40.23;;;22.27;;
20621;SDS011;10470;42.670;23.354;2023-02-15T03:13:52;41.57;;;22.60;;
20621;SDS011;10470;42.670;23.354;2023-02-15T03:16:38;39.73;;;21.03;;
20621;SDS011;10470;42.670;23.354;2023-02-15T03:19:28;40.23;;;21.90;;
20621;SDS011;10470;42.670;23.354;2023-02-15T03:22:18;41.97;;;22.70;;
20621;SDS011;10470;42.670;23.354;2023-02-15T03:25:14;41.07;;;22.37;;
20621;SDS011;10470;42.670;23.354;2023-02-15T03:28:06;42.50;;;23.10;;
20621;SDS011;10470;42.670;23.354;2023-02-15T03:30:55;40.57;;;22.47;;
20621;SDS011;10470;42.670;23.354;2023-02-15T03:33:45;38.77;;;22.50;;
20621;SDS011;10470;42.670;23.354;2023-02-15T03:36:43;41.63;;;21.70;;
20621;SDS011;10470;42.670;23.354;2023-02-15T03:42:38;39.73;;;21.77;;
20621;SDS011;10470;42.670;23.354;2023-02-15T03:45:25;34.63;;;16.80;;
20621;SDS011;10470;42.670;23.354;2023-02-15T03:48:14;39.83;;;21.57;;
20621;SDS011;10470;42.670;23.354;2023-02-15T03:51:04;40.77;;;21.63;;
20621;SDS011;10470;42.670;23.354;2023-02-15T03:57:29;41.97;;;22.83;;
20621;SDS011;10470;42.670;23.354;2023-02-15T04:00:35;41.33;;;19.83;;
20621;SDS011;10470;42.670;23.354;2023-02-15T04:03:43;36.50;;;19.80;;
20621;SDS011;10470;42.670;23.354;2023-02-15T04:06:34;37.83;;;21.73;;
20621;SDS011;10470;42.670;23.354;2023-02-15T04:09:20;38.40;;;21.23;;
20621;SDS011;10470;42.670;23.354;2023-02-15T04:12:23;42.50;;;22.27;;
20621;SDS011;10470;42.670;23.354;2023-02-15T04:15:11;38.77;;;21.73;;
20621;SDS011;10470;42.670;23.354;2023-02-15T04:18:16;38.93;;;21.50;;
20621;SDS011;10470;42.670;23.354;2023-02-15T04:21:01;38.03;;;21.17;;
20621;SDS011;10470;42.670;23.354;2023-02-15T04:24:05;38.60;;;20.67;;
20621;SDS011;10470;42.670;23.354;2023-02-15T04:27:09;36.07;;;19.67;;
20621;SDS011;10470;42.670;23.354;2023-02-15T04:29:54;39.87;;;22.07;;
20621;SDS011;10470;42.670;23.354;2023-02-15T04:32:40;42.37;;;21.47;;
20621;SDS011;10470;42.670;23.354;2023-02-15T04:35:25;40.43;;;21.73;;
20621;SDS011;10470;42.670;23.354;2023-02-15T04:38:11;39.50;;;21.13;;
20621;SDS011;10470;42.670;23.354;2023-02-15T04:40:56;38.67;;;20.87;;
20621;SDS011;10470;42.670;23.354;2023-02-15T04:43:42;39.90;;;21.67;;
20621;SDS011;10470;42.670;23.354;2023-02-15T04:46:27;42.00;;;20.43;;
20621;SDS011;10470;42.670;23.354;2023-02-15T04:49:13;42.03;;;21.87;;
20621;SDS011;10470;42.670;23.354;2023-02-15T04:51:58;37.40;;;21.03;;
20621;SDS011;10470;42.670;23.354;2023-02-15T04:54:44;39.80;;;21.47;;
20621;SDS011;10470;42.670;23.354;2023-02-15T04:57:30;40.83;;;22.23;;
20621;SDS011;10470;42.670;23.354;2023-02-15T05:00:15;44.57;;;22.37;;
20621;SDS011;10470;42.670;23.354;2023-02-15T05:03:01;43.43;;;22.27;;
20621;SDS011;10470;42.670;23.354;2023-02-15T05:05:47;42.43;;;22.03;;
20621;SDS011;10470;42.670;23.354;2023-02-15T05:08:32;45.50;;;24.53;;
20621;SDS011;10470;42.670;23.354;2023-02-15T05:11:18;43.67;;;23.30;;
20621;SDS011;10470;42.670;23.354;2023-02-15T05:14:03;40.67;;;21.17;;
20621;SDS011;10470;42.670;23.354;2023-02-15T05:16:49;39.20;;;21.40;;
20621;SDS011;10470;42.670;23.354;2023-02-15T05:19:35;41.27;;;22.43;;
20621;SDS011;10470;42.670;23.354;2023-02-15T05:22:20;46.90;;;24.00;;
20621;SDS011;10470;42.670;23.354;2023-02-15T05:25:06;41.80;;;23.00;;
20621;SDS011;10470;42.670;23.354;2023-02-15T05:28:11;41.17;;;21.03;;
20621;SDS011;10470;42.670;23.354;2023-02-15T05:31:13;41.40;;;21.60;;
20621;SDS011;10470;42.670;23.354;2023-02-15T05:34:01;40.43;;;21.23;;
20621;SDS011;10470;42.670;23.354;2023-02-15T05:36:46;38.73;;;21.73;;
20621;SDS011;10470;42.670;23.354;2023-02-15T05:39:32;40.60;;;23.00;;
20621;SDS011;10470;42.670;23.354;2023-02-15T05:42:17;49.00;;;24.87;;
20621;SDS011;10470;42.670;23.354;2023-02-15T05:45:03;42.27;;;21.90;;
20621;SDS011;10470;42.670;23.354;2023-02-15T05:47:48;43.90;;;23.60;;
20621;SDS011;10470;42.670;23.354;2023-02-15T05:50:34;42.70;;;22.87;;
20621;SDS011;10470;42.670;23.354;2023-02-15T05:53:19;67.60;;;27.67;;
20621;SDS011;10470;42.670;23.354;2023-02-15T05:56:05;42.63;;;23.23;;
20621;SDS011;10470;42.670;23.354;2023-02-15T05:58:53;37.90;;;20.10;;
20621;SDS011;10470;42.670;23.354;2023-02-15T06:01:39;40.10;;;22.53;;
20621;SDS011;10470;42.670;23.354;2023-02-15T06:04:25;42.50;;;22.53;;
20621;SDS011;10470;42.670;23.354;2023-02-15T06:07:10;40.53;;;22.17;;
20621;SDS011;10470;42.670;23.354;2023-02-15T06:09:56;41.00;;;22.50;;
20621;SDS011;10470;42.670;23.354;2023-02-15T06:12:41;41.37;;;21.93;;
20621;SDS011;10470;42.670;23.354;2023-02-15T06:15:26;39.93;;;19.70;;
20621;SDS011;10470;42.670;23.354;2023-02-15T06:18:12;38.57;;;21.57;;
20621;SDS011;10470;42.670;23.354;2023-02-15T06:20:57;41.07;;;22.17;;
20621;SDS011;10470;42.670;23.354;2023-02-15T06:23:43;37.30;;;20.57;;
20621;SDS011;10470;42.670;23.354;2023-02-15T06:26:28;36.03;;;20.80;;
20621;SDS011;10470;42.670;23.354;2023-02-15T06:29:14;39.47;;;21.47;;
20621;SDS011;10470;42.670;23.354;2023-02-15T06:31:59;36.87;;;19.23;;
20621;SDS011;10470;42.670;23.354;2023-02-15T06:34:45;45.03;;;23.40;;
20621;SDS011;10470;42.670;23.354;2023-02-15T06:37:30;39.60;;;21.30;;
20621;SDS011;10470;42.670;23.354;2023-02-15T06:40:16;42.10;;;21.87;;
20621;SDS011;10470;42.670;23.354;2023-02-15T06:43:01;39.17;;;21.83;;
20621;SDS011;10470;42.670;23.354;2023-02-15T06:45:47;37.87;;;20.77;;
20621;SDS011;10470;42.670;23.354;2023-02-15T06:48:32;35.67;;;20.20;;
20621;SDS011;10470;42.670;23.354;2023-02-15T06:51:17;35.23;;;19.67;;
20621;SDS011;10470;42.670;23.354;2023-02-15T06:54:03;36.10;;;21.00;;
20621;SDS011;10470;42.670;23.354;2023-02-15T06:56:48;39.33;;;20.63;;
20621;SDS011;10470;42.670;23.354;2023-02-15T06:59:34;35.13;;;19.73;;
20621;SDS011;10470;42.670;23.354;2023-02-15T07:02:19;36.83;;;20.20;;
20621;SDS011;10470;42.670;23.354;2023-02-15T07:05:05;36.40;;;20.37;;
20621;SDS011;10470;42.670;23.354;2023-02-15T07:07:50;36.80;;;19.63;;
20621;SDS011;10470;42.670;23.354;2023-02-15T07:10:36;34.17;;;19.40;;
20621;SDS011;10470;42.670;23.354;2023-02-15T07:13:21;29.03;;;16.33;;
20621;SDS011;10470;42.670;23.354;2023-02-15T07:16:08;34.77;;;17.97;;
20621;SDS011;10470;42.670;23.354;2023-02-15T07:18:54;37.97;;;19.97;;
20621;SDS011;10470;42.670;23.354;2023-02-15T07:21:40;30.67;;;18.40;;
20621;SDS011;10470;42.670;23.354;2023-02-15T07:24:25;27.63;;;14.20;;
20621;SDS011;10470;42.670;23.354;2023-02-15T07:27:10;32.57;;;19.07;;
20621;SDS011;10470;42.670;23.354;2023-02-15T07:29:56;31.40;;;17.67;;
20621;SDS011;10470;42.670;23.354;2023-02-15T07:32:41;32.00;;;18.43;;
20621;SDS011;10470;42.670;23.354;2023-02-15T07:35:46;34.83;;;19.23;;
20621;SDS011;10470;42.670;23.354;2023-02-15T07:38:36;31.67;;;15.87;;
20621;SDS011;10470;42.670;23.354;2023-02-15T07:41:23;38.10;;;20.43;;
20621;SDS011;10470;42.670;23.354;2023-02-15T07:44:12;34.13;;;18.17;;
20621;SDS011;10470;42.670;23.354;2023-02-15T07:46:58;34.20;;;19.10;;
20621;SDS011;10470;42.670;23.354;2023-02-15T07:49:44;31.47;;;17.30;;
20621;SDS011;10470;42.670;23.354;2023-02-15T07:52:29;29.17;;;16.87;;
20621;SDS011;10470;42.670;23.354;2023-02-15T07:55:15;32.00;;;17.90;;
20621;SDS011;10470;42.670;23.354;2023-02-15T07:58:01;33.17;;;17.90;;
20621;SDS011;10470;42.670;23.354;2023-02-15T08:00:47;31.37;;;17.90;;
20621;SDS011;10470;42.670;23.354;2023-02-15T08:03:41;29.90;;;17.37;;
20621;SDS011;10470;42.670;23.354;2023-02-15T08:06:28;39.80;;;19.87;;
20621;SDS011;10470;42.670;23.354;2023-02-15T08:09:15;31.57;;;16.97;;
20621;SDS011;10470;42.670;23.354;2023-02-15T08:12:00;30.63;;;17.33;;
20621;SDS011;10470;42.670;23.354;2023-02-15T08:14:47;32.27;;;17.70;;
20621;SDS011;10470;42.670;23.354;2023-02-15T08:17:35;33.33;;;18.13;;
20621;SDS011;10470;42.670;23.354;2023-02-15T08:20:21;31.20;;;16.97;;
20621;SDS011;10470;42.670;23.354;2023-02-15T08:23:07;33.33;;;17.87;;
20621;SDS011;10470;42.670;23.354;2023-02-15T08:25:52;32.47;;;17.63;;
20621;SDS011;10470;42.670;23.354;2023-02-15T08:28:38;29.50;;;15.63;;
20621;SDS011;10470;42.670;23.354;2023-02-15T08:31:23;37.23;;;20.10;;
20621;SDS011;10470;42.670;23.354;2023-02-15T08:34:09;31.47;;;18.00;;
20621;SDS011;10470;42.670;23.354;2023-02-15T08:36:58;30.13;;;17.73;;
20621;SDS011;10470;42.670;23.354;2023-02-15T08:39:44;32.20;;;17.23;;
20621;SDS011;10470;42.670;23.354;2023-02-15T08:42:32;30.70;;;17.27;;
20621;SDS011;10470;42.670;23.354;2023-02-15T08:45:18;41.00;;;19.53;;
20621;SDS011;10470;42.670;23.354;2023-02-15T08:48:03;28.37;;;15.33;;
20621;SDS011;10470;42.670;23.354;2023-02-15T08:50:49;29.87;;;17.77;;
20621;SDS011;10470;42.670;23.354;2023-02-15T08:53:34;26.93;;;15.03;;
20621;SDS011;10470;42.670;23.354;2023-02-15T08:56:21;29.83;;;16.40;;
20621;SDS011;10470;42.670;23.354;2023-02-15T08:59:11;31.03;;;17.10;;
20621;SDS011;10470;42.670;23.354;2023-02-15T09:01:58;33.13;;;17.43;;
20621;SDS011;10470;42.670;23.354;2023-02-15T09:04:44;34.97;;;18.87;;
20621;SDS011;10470;42.670;23.354;2023-02-15T09:07:29;32.07;;;18.13;;
20621;SDS011;10470;42.670;23.354;2023-02-15T09:10:15;32.93;;;17.80;;
20621;SDS011;10470;42.670;23.354;2023-02-15T09:13:01;30.50;;;17.17;;
20621;SDS011;10470;42.670;23.354;2023-02-15T09:15:46;21.57;;;13.07;;
20621;SDS011;10470;42.670;23.354;2023-02-15T09:18:32;26.23;;;14.53;;
20621;SDS011;10470;42.670;23.354;2023-02-15T09:21:21;24.50;;;15.30;;
20621;SDS011;10470;42.670;23.354;2023-02-15T09:24:09;24.67;;;15.30;;
20621;SDS011;10470;42.670;23.354;2023-02-15T09:26:56;32.40;;;17.37;;
20621;SDS011;10470;42.670;23.354;2023-02-15T09:29:41;26.63;;;15.33;;
20621;SDS011;10470;42.670;23.354;2023-02-15T09:32:27;28.93;;;15.50;;
20621;SDS011;10470;42.670;23.354;2023-02-15T09:35:12;29.27;;;15.23;;
20621;SDS011;10470;42.670;23.354;2023-02-15T09:37:58;25.30;;;14.40;;
20621;SDS011;10470;42.670;23.354;2023-02-15T09:40:46;29.40;;;16.23;;
20621;SDS011;10470;42.670;23.354;2023-02-15T09:46:50;27.73;;;15.57;;
20621;SDS011;10470;42.670;23.354;2023-02-15T09:56:32;26.97;;;17.10;;
20621;SDS011;10470;42.670;23.354;2023-02-15T10:09:08;27.03;;;15.50;;
20621;SDS011;10470;42.670;23.354;2023-02-15T10:14:58;25.47;;;12.90;;
20621;SDS011;10470;42.670;23.354;2023-02-15T10:17:53;27.83;;;16.07;;
20621;SDS011;10470;42.670;23.354;2023-02-15T10:20:58;28.60;;;16.97;;
20621;SDS011;10470;42.670;23.354;2023-02-15T10:26:49;26.73;;;15.43;;
20621;SDS011;10470;42.670;23.354;2023-02-15T10:29:36;29.80;;;16.47;;
20621;SDS011;10470;42.670;23.354;2023-02-15T10:32:24;20.60;;;11.90;;
20621;SDS011;10470;42.670;23.354;2023-02-15T10:35:20;28.60;;;17.23;;
20621;SDS011;10470;42.670;23.354;2023-02-15T10:41:41;29.77;;;17.07;;
20621;SDS011;10470;42.670;23.354;2023-02-15T10:51:29;30.07;;;16.50;;
20621;SDS011;10470;42.670;23.354;2023-02-15T11:03:37;26.90;;;14.17;;
20621;SDS011;10470;42.670;23.354;2023-02-15T11:06:27;25.47;;;16.13;;
20621;SDS011;10470;42.670;23.354;2023-02-15T11:09:14;28.80;;;17.53;;
20621;SDS011;10470;42.670;23.354;2023-02-15T11:12:03;28.10;;;16.13;;
20621;SDS011;10470;42.670;23.354;2023-02-15T11:17:45;30.47;;;16.17;;
20621;SDS011;10470;42.670;23.354;2023-02-15T11:23:32;26.00;;;15.67;;
20621;SDS011;10470;42.670;23.354;2023-02-15T11:26:38;27.57;;;17.60;;
20621;SDS011;10470;42.670;23.354;2023-02-15T11:29:50;29.77;;;16.97;;
20621;SDS011;10470;42.670;23.354;2023-02-15T11:32:38;28.83;;;16.37;;
20621;SDS011;10470;42.670;23.354;2023-02-15T11:35:27;28.23;;;17.53;;
20621;SDS011;10470;42.670;23.354;2023-02-15T11:38:18;28.47;;;17.60;;
20621;SDS011;10470;42.670;23.354;2023-02-15T11:41:15;25.90;;;15.17;;
20621;SDS011;10470;42.670;23.354;2023-02-15T11:44:14;28.57;;;16.43;;
20621;SDS011;10470;42.670;23.354;2023-02-15T11:47:10;27.07;;;16.33;;
20621;SDS011;10470;42.670;23.354;2023-02-15T11:49:57;26.13;;;17.37;;
20621;SDS011;10470;42.670;23.354;2023-02-15T11:52:42;27.83;;;18.03;;
20621;SDS011;10470;42.670;23.354;2023-02-15T11:55:28;29.10;;;17.77;;
20621;SDS011;10470;42.670;23.354;2023-02-15T12:01:24;30.07;;;18.73;;
20621;SDS011;10470;42.670;23.354;2023-02-15T12:07:54;27.50;;;18.13;;
20621;SDS011;10470;42.670;23.354;2023-02-15T12:10:30;24.37;;;16.30;;
20621;SDS011;10470;42.670;23.354;2023-02-15T12:13:21;25.43;;;16.87;;
20621;SDS011;10470;42.670;23.354;2023-02-15T12:16:07;23.90;;;15.30;;
20621;SDS011;10470;42.670;23.354;2023-02-15T12:18:58;26.77;;;16.97;;
20621;SDS011;10470;42.670;23.354;2023-02-15T12:21:48;28.10;;;17.60;;
20621;SDS011;10470;42.670;23.354;2023-02-15T12:24:38;23.47;;;15.57;;
20621;SDS011;10470;42.670;23.354;2023-02-15T12:27:31;25.90;;;15.40;;
20621;SDS011;10470;42.670;23.354;2023-02-15T12:33:23;25.63;;;17.07;;
20621;SDS011;10470;42.670;23.354;2023-02-15T12:36:21;26.23;;;16.93;;
20621;SDS011;10470;42.670;23.354;2023-02-15T12:41:59;25.90;;;17.63;;
20621;SDS011;10470;42.670;23.354;2023-02-15T12:51:07;25.67;;;16.40;;
20621;SDS011;10470;42.670;23.354;2023-02-15T12:53:53;25.97;;;16.80;;
20621;SDS011;10470;42.670;23.354;2023-02-15T12:56:38;25.00;;;17.53;;
20621;SDS011;10470;42.670;23.354;2023-02-15T12:59:24;26.63;;;17.83;;
20621;SDS011;10470;42.670;23.354;2023-02-15T13:02:13;26.97;;;17.60;;
20621;SDS011;10470;42.670;23.354;2023-02-15T13:05:29;24.90;;;17.53;;
20621;SDS011;10470;42.670;23.354;2023-02-15T13:08:18;26.10;;;17.53;;
20621;SDS011;10470;42.670;23.354;2023-02-15T13:11:07;29.40;;;18.43;;
20621;SDS011;10470;42.670;23.354;2023-02-15T13:16:40;26.67;;;18.10;;
20621;SDS011;10470;42.670;23.354;2023-02-15T13:19:33;26.80;;;17.17;;
20621;SDS011;10470;42.670;23.354;2023-02-15T13:22:24;28.20;;;18.37;;
20621;SDS011;10470;42.670;23.354;2023-02-15T13:25:19;25.53;;;17.17;;
20621;SDS011;10470;42.670;23.354;2023-02-15T13:28:10;28.40;;;18.37;;
20621;SDS011;10470;42.670;23.354;2023-02-15T13:30:59;24.53;;;16.50;;
20621;SDS011;10470;42.670;23.354;2023-02-15T13:33:55;29.60;;;18.67;;
20621;SDS011;10470;42.670;23.354;2023-02-15T13:39:51;25.87;;;16.77;;
20621;SDS011;10470;42.670;23.354;2023-02-15T13:42:49;25.67;;;17.73;;
20621;SDS011;10470;42.670;23.354;2023-02-15T13:49:44;26.27;;;17.60;;
20621;SDS011;10470;42.670;23.354;2023-02-15T13:58:30;25.20;;;16.27;;
20621;SDS011;10470;42.670;23.354;2023-02-15T14:19:44;29.33;;;19.00;;
20621;SDS011;10470;42.670;23.354;2023-02-15T14:22:41;30.47;;;19.00;;
20621;SDS011;10470;42.670;23.354;2023-02-15T14:25:37;26.47;;;17.73;;
20621;SDS011;10470;42.670;23.354;2023-02-15T14:28:34;29.90;;;19.17;;
20621;SDS011;10470;42.670;23.354;2023-02-15T14:31:34;30.33;;;19.83;;
20621;SDS011;10470;42.670;23.354;2023-02-15T14:34:26;30.00;;;17.40;;
20621;SDS011;10470;42.670;23.354;2023-02-15T14:37:19;30.90;;;19.50;;
20621;SDS011;10470;42.670;23.354;2023-02-15T14:46:59;32.60;;;19.00;;
20621;SDS011;10470;42.670;23.354;2023-02-15T14:49:50;30.87;;;19.63;;
20621;SDS011;10470;42.670;23.354;2023-02-15T14:52:49;32.43;;;19.83;;
20621;SDS011;10470;42.670;23.354;2023-02-15T14:58:59;33.93;;;20.03;;
20621;SDS011;10470;42.670;23.354;2023-02-15T15:07:53;34.37;;;20.17;;
20621;SDS011;10470;42.670;23.354;2023-02-15T15:10:45;33.77;;;20.03;;
20621;SDS011;10470;42.670;23.354;2023-02-15T15:16:24;34.07;;;20.63;;
20621;SDS011;10470;42.670;23.354;2023-02-15T15:22:30;33.13;;;19.20;;
20621;SDS011;10470;42.670;23.354;2023-02-15T15:29:00;32.83;;;19.67;;
20621;SDS011;10470;42.670;23.354;2023-02-15T15:31:47;33.33;;;18.67;;
20621;SDS011;10470;42.670;23.354;2023-02-15T15:34:45;33.80;;;20.37;;
20621;SDS011;10470;42.670;23.354;2023-02-15T15:47:03;34.90;;;20.00;;
20621;SDS011;10470;42.670;23.354;2023-02-15T15:49:59;36.53;;;20.23;;
20621;SDS011;10470;42.670;23.354;2023-02-15T15:53:03;39.40;;;21.37;;
20621;SDS011;10470;42.670;23.354;2023-02-15T15:55:50;37.20;;;22.20;;
20621;SDS011;10470;42.670;23.354;2023-02-15T15:58:50;35.43;;;20.53;;
20621;SDS011;10470;42.670;23.354;2023-02-15T16:01:42;40.00;;;21.53;;
20621;SDS011;10470;42.670;23.354;2023-02-15T16:04:30;38.27;;;21.87;;
20621;SDS011;10470;42.670;23.354;2023-02-15T16:10:19;35.33;;;20.07;;
20621;SDS011;10470;42.670;23.354;2023-02-15T16:13:11;37.10;;;21.70;;
20621;SDS011;10470;42.670;23.354;2023-02-15T16:15:58;38.33;;;23.17;;
20621;SDS011;10470;42.670;23.354;2023-02-15T16:18:44;40.93;;;23.07;;
20621;SDS011;10470;42.670;23.354;2023-02-15T16:21:34;38.50;;;22.27;;
20621;SDS011;10470;42.670;23.354;2023-02-15T16:24:24;38.80;;;22.60;;
20621;SDS011;10470;42.670;23.354;2023-02-15T16:33:15;39.00;;;22.10;;
20621;SDS011;10470;42.670;23.354;2023-02-15T16:36:01;39.73;;;23.07;;
20621;SDS011;10470;42.670;23.354;2023-02-15T16:41:34;45.10;;;23.23;;
20621;SDS011;10470;42.670;23.354;2023-02-15T16:44:20;39.10;;;21.97;;
20621;SDS011;10470;42.670;23.354;2023-02-15T16:47:28;36.23;;;21.30;;
20621;SDS011;10470;42.670;23.354;2023-02-15T16:50:17;41.30;;;22.47;;
20621;SDS011;10470;42.670;23.354;2023-02-15T16:53:06;40.73;;;23.33;;
20621;SDS011;10470;42.670;23.354;2023-02-15T16:56:22;37.33;;;21.60;;
20621;SDS011;10470;42.670;23.354;2023-02-15T16:59:14;38.20;;;21.90;;
20621;SDS011;10470;42.670;23.354;2023-02-15T17:02:17;42.23;;;23.77;;
20621;SDS011;10470;42.670;23.354;2023-02-15T17:08:04;39.40;;;21.83;;
20621;SDS011;10470;42.670;23.354;2023-02-15T17:16:54;37.80;;;22.17;;
20621;SDS011;10470;42.670;23.354;2023-02-15T17:22:35;39.30;;;22.97;;
20621;SDS011;10470;42.670;23.354;2023-02-15T17:25:33;48.80;;;24.57;;
20621;SDS011;10470;42.670;23.354;2023-02-15T17:28:23;41.47;;;23.23;;
20621;SDS011;10470;42.670;23.354;2023-02-15T17:31:12;43.93;;;23.57;;
20621;SDS011;10470;42.670;23.354;2023-02-15T17:34:00;41.50;;;23.80;;
20621;SDS011;10470;42.670;23.354;2023-02-15T17:36:58;42.77;;;23.93;;
20621;SDS011;10470;42.670;23.354;2023-02-15T17:39:47;46.57;;;24.27;;
20621;SDS011;10470;42.670;23.354;2023-02-15T17:42:32;45.60;;;23.13;;
20621;SDS011;10470;42.670;23.354;2023-02-15T17:45:18;41.57;;;22.37;;
20621;SDS011;10470;42.670;23.354;2023-02-15T17:48:04;40.63;;;23.33;;
20621;SDS011;10470;42.670;23.354;2023-02-15T17:50:51;40.97;;;23.40;;
20621;SDS011;10470;42.670;23.354;2023-02-15T17:53:36;45.47;;;24.37;;
20621;SDS011;10470;42.670;23.354;2023-02-15T17:56:22;43.27;;;24.83;;
20621;SDS011;10470;42.670;23.354;2023-02-15T17:59:07;47.07;;;25.37;;
20621;SDS011;10470;42.670;23.354;2023-02-15T18:01:54;50.03;;;25.23;;
20621;SDS011;10470;42.670;23.354;2023-02-15T18:04:58;44.20;;;25.37;;
20621;SDS011;10470;42.670;23.354;2023-02-15T18:08:02;45.77;;;26.23;;
20621;SDS011;10470;42.670;23.354;2023-02-15T18:11:07;45.70;;;25.67;;
20621;SDS011;10470;42.670;23.354;2023-02-15T18:14:13;45.43;;;25.10;;
20621;SDS011;10470;42.670;23.354;2023-02-15T18:16:58;45.00;;;24.83;;
20621;SDS011;10470;42.670;23.354;2023-02-15T18:19:44;48.40;;;24.23;;
20621;SDS011;10470;42.670;23.354;2023-02-15T18:22:31;43.47;;;24.83;;
20621;SDS011;10470;42.670;23.354;2023-02-15T18:25:17;48.00;;;24.50;;
20621;SDS011;10470;42.670;23.354;2023-02-15T18:28:05;44.40;;;24.47;;
20621;SDS011;10470;42.670;23.354;2023-02-15T18:30:51;44.40;;;23.83;;
20621;SDS011;10470;42.670;23.354;2023-02-15T18:33:41;43.43;;;25.20;;
20621;SDS011;10470;42.670;23.354;2023-02-15T18:36:29;39.23;;;22.97;;
20621;SDS011;10470;42.670;23.354;2023-02-15T18:39:32;41.47;;;23.37;;
20621;SDS011;10470;42.670;23.354;2023-02-15T18:42:31;40.70;;;22.57;;
20621;SDS011;10470;42.670;23.354;2023-02-15T18:45:20;41.00;;;22.93;;
20621;SDS011;10470;42.670;23.354;2023-02-15T18:48:06;42.10;;;23.20;;
20621;SDS011;10470;42.670;23.354;2023-02-15T18:50:54;40.73;;;22.47;;
20621;SDS011;10470;42.670;23.354;2023-02-15T18:53:40;41.37;;;22.27;;
20621;SDS011;10470;42.670;23.354;2023-02-15T18:56:25;40.17;;;22.63;;
20621;SDS011;10470;42.670;23.354;2023-02-15T18:59:15;43.90;;;24.13;;
20621;SDS011;10470;42.670;23.354;2023-02-15T19:02:01;39.70;;;22.63;;
20621;SDS011;10470;42.670;23.354;2023-02-15T19:04:46;40.00;;;21.00;;
20621;SDS011;10470;42.670;23.354;2023-02-15T19:07:32;40.23;;;22.17;;
20621;SDS011;10470;42.670;23.354;2023-02-15T19:10:20;38.33;;;21.30;;
20621;SDS011;10470;42.670;23.354;2023-02-15T19:13:10;40.67;;;22.13;;
20621;SDS011;10470;42.670;23.354;2023-02-15T19:15:57;38.13;;;21.17;;
20621;SDS011;10470;42.670;23.354;2023-02-15T19:18:43;35.67;;;21.07;;
20621;SDS011;10470;42.670;23.354;2023-02-15T19:21:30;39.07;;;21.27;;
20621;SDS011;10470;42.670;23.354;2023-02-15T19:24:30;38.13;;;21.63;;
20621;SDS011;10470;42.670;23.354;2023-02-15T19:27:24;38.67;;;22.47;;
20621;SDS011;10470;42.670;23.354;2023-02-15T19:30:20;44.17;;;23.73;;